sensor_id;sensor_type;location;lat;lon;timestamp;P1;durP1;ratioP1;P2;durP2;ratioP2
55647;SDS011;45266;48.756;9.246;2023-05-29T00:00:36;7.50;;;4.80;;
55647;SDS011;45266;48.756;9.246;2023-05-29T00:01:38;5.25;;;4.00;;
55647;SDS011;45266;48.756;9.246;2023-05-29T00:02:41;6.05;;;4.00;;
55647;SDS011;45266;48.756;9.246;2023-05-29T00:03:45;7.03;;;4.40;;
55647;SDS011;45266;48.756;9.246;2023-05-29T00:04:47;7.97;;;4.18;;
55647;SDS011;45266;48.756;9.246;2023-05-29T00:05:49;5.65;;;4.20;;
55647;SDS011;45266;48.756;9.246;2023-05-29T00:06:51;7.40;;;4.63;;
55647;SDS011;45266;48.756;9.246;2023-05-29T00:07:53;5.13;;;4.20;;
55647;SDS011;45266;48.756;9.246;2023-05-29T00:08:55;6.22;;;4.53;;
55647;SDS011;45266;48.756;9.246;2023-05-29T00:09:56;5.82;;;4.68;;
55647;SDS011;45266;48.756;9.246;2023-05-29T00:10:59;7.50;;;4.72;;
55647;SDS011;45266;48.756;9.246;2023-05-29T00:12:01;8.10;;;4.47;;
55647;SDS011;45266;48.756;9.246;2023-05-29T00:13:03;5.43;;;4.25;;
55647;SDS011;45266;48.756;9.246;2023-05-29T00:14:08;6.35;;;4.43;;
55647;SDS011;45266;48.756;9.246;2023-05-29T00:15:14;6.43;;;4.25;;
55647;SDS011;45266;48.756;9.246;2023-05-29T00:16:16;6.35;;;4.40;;
55647;SDS011;45266;48.756;9.246;2023-05-29T00:17:19;8.90;;;4.95;;
55647;SDS011;45266;48.756;9.246;2023-05-29T00:18:22;6.90;;;4.65;;
55647;SDS011;45266;48.756;9.246;2023-05-29T00:19:23;6.65;;;4.35;;
55647;SDS011;45266;48.756;9.246;2023-05-29T00:20:26;7.13;;;4.63;;
55647;SDS011;45266;48.756;9.246;2023-05-29T00:21:28;8.27;;;4.20;;
55647;SDS011;45266;48.756;9.246;2023-05-29T00:22:30;5.97;;;4.30;;
55647;SDS011;45266;48.756;9.246;2023-05-29T00:23:32;6.97;;;4.50;;
55647;SDS011;45266;48.756;9.246;2023-05-29T00:24:34;6.00;;;4.20;;
55647;SDS011;45266;48.756;9.246;2023-05-29T00:25:35;7.40;;;4.53;;
55647;SDS011;45266;48.756;9.246;2023-05-29T00:26:37;8.00;;;5.03;;
55647;SDS011;45266;48.756;9.246;2023-05-29T00:27:39;5.82;;;3.92;;
55647;SDS011;45266;48.756;9.246;2023-05-29T00:28:42;6.75;;;4.47;;
55647;SDS011;45266;48.756;9.246;2023-05-29T00:29:45;5.85;;;4.10;;
55647;SDS011;45266;48.756;9.246;2023-05-29T00:30:47;7.00;;;4.57;;
55647;SDS011;45266;48.756;9.246;2023-05-29T00:31:49;7.90;;;3.72;;
55647;SDS011;45266;48.756;9.246;2023-05-29T00:32:51;6.63;;;4.13;;
55647;SDS011;45266;48.756;9.246;2023-05-29T00:33:55;6.22;;;4.22;;
55647;SDS011;45266;48.756;9.246;2023-05-29T00:34:57;5.35;;;4.13;;
55647;SDS011;45266;48.756;9.246;2023-05-29T00:35:59;6.57;;;4.13;;
55647;SDS011;45266;48.756;9.246;2023-05-29T00:37:01;7.97;;;4.50;;
55647;SDS011;45266;48.756;9.246;2023-05-29T00:38:04;6.30;;;4.30;;
55647;SDS011;45266;48.756;9.246;2023-05-29T00:39:06;8.93;;;4.45;;
55647;SDS011;45266;48.756;9.246;2023-05-29T00:40:08;6.72;;;3.88;;
55647;SDS011;45266;48.756;9.246;2023-05-29T00:41:14;8.35;;;4.43;;
55647;SDS011;45266;48.756;9.246;2023-05-29T00:42:17;6.88;;;4.03;;
55647;SDS011;45266;48.756;9.246;2023-05-29T00:43:19;4.18;;;3.78;;
55647;SDS011;45266;48.756;9.246;2023-05-29T00:44:21;6.07;;;4.10;;
55647;SDS011;45266;48.756;9.246;2023-05-29T00:45:23;7.00;;;4.28;;
55647;SDS011;45266;48.756;9.246;2023-05-29T00:46:25;5.03;;;4.00;;
55647;SDS011;45266;48.756;9.246;2023-05-29T00:47:27;6.63;;;4.38;;
55647;SDS011;45266;48.756;9.246;2023-05-29T00:48:29;5.40;;;4.13;;
55647;SDS011;45266;48.756;9.246;2023-05-29T00:49:31;6.47;;;4.10;;
55647;SDS011;45266;48.756;9.246;2023-05-29T00:50:33;7.00;;;4.60;;
55647;SDS011;45266;48.756;9.246;2023-05-29T00:51:35;8.63;;;4.50;;
55647;SDS011;45266;48.756;9.246;2023-05-29T00:52:37;5.18;;;3.70;;
55647;SDS011;45266;48.756;9.246;2023-05-29T00:53:42;5.97;;;4.65;;
55647;SDS011;45266;48.756;9.246;2023-05-29T00:54:45;8.52;;;5.18;;
55647;SDS011;45266;48.756;9.246;2023-05-29T00:55:47;5.35;;;4.15;;
55647;SDS011;45266;48.756;9.246;2023-05-29T00:56:49;8.32;;;4.65;;
55647;SDS011;45266;48.756;9.246;2023-05-29T00:57:53;6.38;;;4.57;;
55647;SDS011;45266;48.756;9.246;2023-05-29T00:58:55;6.25;;;4.40;;
55647;SDS011;45266;48.756;9.246;2023-05-29T00:59:57;5.47;;;3.47;;
55647;SDS011;45266;48.756;9.246;2023-05-29T01:01:01;8.20;;;4.43;;
55647;SDS011;45266;48.756;9.246;2023-05-29T01:02:04;5.07;;;4.47;;
55647;SDS011;45266;48.756;9.246;2023-05-29T01:03:07;5.60;;;4.38;;
55647;SDS011;45266;48.756;9.246;2023-05-29T01:04:10;8.13;;;4.72;;
55647;SDS011;45266;48.756;9.246;2023-05-29T01:05:13;5.90;;;4.38;;
55647;SDS011;45266;48.756;9.246;2023-05-29T01:06:20;6.70;;;4.30;;
55647;SDS011;45266;48.756;9.246;2023-05-29T01:07:22;5.75;;;4.25;;
55647;SDS011;45266;48.756;9.246;2023-05-29T01:08:24;7.57;;;4.38;;
55647;SDS011;45266;48.756;9.246;2023-05-29T01:09:26;7.85;;;4.70;;
55647;SDS011;45266;48.756;9.246;2023-05-29T01:10:28;5.95;;;3.67;;
55647;SDS011;45266;48.756;9.246;2023-05-29T01:13:09;5.03;;;4.03;;
55647;SDS011;45266;48.756;9.246;2023-05-29T01:14:17;7.75;;;3.97;;
55647;SDS011;45266;48.756;9.246;2023-05-29T01:17:11;5.35;;;3.85;;
55647;SDS011;45266;48.756;9.246;2023-05-29T01:18:51;6.35;;;4.45;;
55647;SDS011;45266;48.756;9.246;2023-05-29T01:20:47;4.75;;;3.42;;
55647;SDS011;45266;48.756;9.246;2023-05-29T01:21:53;5.72;;;4.13;;
55647;SDS011;45266;48.756;9.246;2023-05-29T01:27:04;6.10;;;3.38;;
55647;SDS011;45266;48.756;9.246;2023-05-29T01:28:10;6.85;;;4.28;;
55647;SDS011;45266;48.756;9.246;2023-05-29T01:29:15;7.93;;;4.53;;
55647;SDS011;45266;48.756;9.246;2023-05-29T01:30:24;5.57;;;4.05;;
55647;SDS011;45266;48.756;9.246;2023-05-29T01:31:26;6.28;;;3.72;;
55647;SDS011;45266;48.756;9.246;2023-05-29T01:32:30;5.50;;;4.30;;
55647;SDS011;45266;48.756;9.246;2023-05-29T01:33:32;8.07;;;4.10;;
55647;SDS011;45266;48.756;9.246;2023-05-29T01:34:34;5.22;;;3.78;;
55647;SDS011;45266;48.756;9.246;2023-05-29T01:35:36;5.72;;;4.53;;
55647;SDS011;45266;48.756;9.246;2023-05-29T01:36:39;8.10;;;4.22;;
55647;SDS011;45266;48.756;9.246;2023-05-29T01:37:40;7.15;;;4.32;;
55647;SDS011;45266;48.756;9.246;2023-05-29T01:38:42;6.03;;;4.30;;
55647;SDS011;45266;48.756;9.246;2023-05-29T01:39:44;5.65;;;4.25;;
55647;SDS011;45266;48.756;9.246;2023-05-29T01:40:46;5.90;;;4.38;;
55647;SDS011;45266;48.756;9.246;2023-05-29T01:41:49;6.95;;;4.25;;
55647;SDS011;45266;48.756;9.246;2023-05-29T01:42:51;8.45;;;4.40;;
55647;SDS011;45266;48.756;9.246;2023-05-29T01:43:53;6.60;;;4.18;;
55647;SDS011;45266;48.756;9.246;2023-05-29T01:44:57;7.80;;;4.15;;
55647;SDS011;45266;48.756;9.246;2023-05-29T01:45:59;4.75;;;3.85;;
55647;SDS011;45266;48.756;9.246;2023-05-29T01:47:02;5.57;;;3.95;;
55647;SDS011;45266;48.756;9.246;2023-05-29T01:48:05;5.90;;;3.88;;
55647;SDS011;45266;48.756;9.246;2023-05-29T01:49:08;5.97;;;3.70;;
55647;SDS011;45266;48.756;9.246;2023-05-29T01:50:13;6.50;;;4.22;;
55647;SDS011;45266;48.756;9.246;2023-05-29T01:51:19;7.35;;;4.53;;
55647;SDS011;45266;48.756;9.246;2023-05-29T01:52:21;6.25;;;3.83;;
55647;SDS011;45266;48.756;9.246;2023-05-29T01:53:23;6.60;;;4.35;;
55647;SDS011;45266;48.756;9.246;2023-05-29T01:54:25;8.68;;;4.22;;
55647;SDS011;45266;48.756;9.246;2023-05-29T01:55:27;6.20;;;4.28;;
55647;SDS011;45266;48.756;9.246;2023-05-29T01:56:29;8.00;;;4.30;;
55647;SDS011;45266;48.756;9.246;2023-05-29T01:57:32;5.45;;;3.97;;
55647;SDS011;45266;48.756;9.246;2023-05-29T01:58:34;7.22;;;4.10;;
55647;SDS011;45266;48.756;9.246;2023-05-29T01:59:38;5.30;;;4.07;;
55647;SDS011;45266;48.756;9.246;2023-05-29T02:00:39;6.45;;;4.68;;
55647;SDS011;45266;48.756;9.246;2023-05-29T02:01:41;6.05;;;4.13;;
55647;SDS011;45266;48.756;9.246;2023-05-29T02:02:43;7.70;;;3.90;;
55647;SDS011;45266;48.756;9.246;2023-05-29T02:03:45;5.85;;;4.10;;
55647;SDS011;45266;48.756;9.246;2023-05-29T02:04:47;5.88;;;4.00;;
55647;SDS011;45266;48.756;9.246;2023-05-29T02:05:49;5.60;;;4.47;;
55647;SDS011;45266;48.756;9.246;2023-05-29T02:06:51;7.82;;;4.43;;
55647;SDS011;45266;48.756;9.246;2023-05-29T02:07:53;6.43;;;3.90;;
55647;SDS011;45266;48.756;9.246;2023-05-29T02:08:55;5.40;;;4.30;;
55647;SDS011;45266;48.756;9.246;2023-05-29T02:09:57;6.90;;;4.45;;
55647;SDS011;45266;48.756;9.246;2023-05-29T02:10:59;6.00;;;3.88;;
55647;SDS011;45266;48.756;9.246;2023-05-29T02:12:01;9.95;;;4.45;;
55647;SDS011;45266;48.756;9.246;2023-05-29T02:13:04;6.63;;;4.03;;
55647;SDS011;45266;48.756;9.246;2023-05-29T02:14:06;6.22;;;4.03;;
55647;SDS011;45266;48.756;9.246;2023-05-29T02:15:07;6.32;;;3.97;;
55647;SDS011;45266;48.756;9.246;2023-05-29T02:16:10;4.70;;;4.10;;
55647;SDS011;45266;48.756;9.246;2023-05-29T02:17:11;5.95;;;4.25;;
55647;SDS011;45266;48.756;9.246;2023-05-29T02:18:14;5.72;;;4.43;;
55647;SDS011;45266;48.756;9.246;2023-05-29T02:19:21;4.50;;;3.83;;
55647;SDS011;45266;48.756;9.246;2023-05-29T02:20:26;7.65;;;4.13;;
55647;SDS011;45266;48.756;9.246;2023-05-29T02:21:28;5.45;;;4.15;;
55647;SDS011;45266;48.756;9.246;2023-05-29T02:22:30;8.13;;;3.85;;
55647;SDS011;45266;48.756;9.246;2023-05-29T02:23:32;5.45;;;4.32;;
55647;SDS011;45266;48.756;9.246;2023-05-29T02:24:34;8.20;;;4.05;;
55647;SDS011;45266;48.756;9.246;2023-05-29T02:25:36;6.57;;;4.20;;
55647;SDS011;45266;48.756;9.246;2023-05-29T02:26:38;5.90;;;4.10;;
55647;SDS011;45266;48.756;9.246;2023-05-29T02:27:40;5.75;;;4.03;;
55647;SDS011;45266;48.756;9.246;2023-05-29T02:28:42;7.10;;;4.03;;
55647;SDS011;45266;48.756;9.246;2023-05-29T02:29:44;5.97;;;4.30;;
55647;SDS011;45266;48.756;9.246;2023-05-29T02:30:46;5.80;;;4.20;;
55647;SDS011;45266;48.756;9.246;2023-05-29T02:31:47;7.32;;;4.55;;
55647;SDS011;45266;48.756;9.246;2023-05-29T02:32:49;9.50;;;4.30;;
55647;SDS011;45266;48.756;9.246;2023-05-29T02:33:52;7.00;;;4.20;;
55647;SDS011;45266;48.756;9.246;2023-05-29T02:34:54;6.07;;;4.00;;
55647;SDS011;45266;48.756;9.246;2023-05-29T02:35:55;5.90;;;3.78;;
55647;SDS011;45266;48.756;9.246;2023-05-29T02:36:57;5.03;;;3.55;;
55647;SDS011;45266;48.756;9.246;2023-05-29T02:37:59;6.35;;;4.43;;
55647;SDS011;45266;48.756;9.246;2023-05-29T02:39:01;7.75;;;4.30;;
55647;SDS011;45266;48.756;9.246;2023-05-29T02:40:03;7.53;;;4.25;;
55647;SDS011;45266;48.756;9.246;2023-05-29T02:41:07;7.40;;;4.47;;
55647;SDS011;45266;48.756;9.246;2023-05-29T02:42:09;4.80;;;3.85;;
55647;SDS011;45266;48.756;9.246;2023-05-29T02:43:12;4.43;;;4.00;;
55647;SDS011;45266;48.756;9.246;2023-05-29T02:44:15;6.00;;;4.57;;
55647;SDS011;45266;48.756;9.246;2023-05-29T02:45:17;7.35;;;4.20;;
55647;SDS011;45266;48.756;9.246;2023-05-29T02:46:19;6.68;;;4.15;;
55647;SDS011;45266;48.756;9.246;2023-05-29T02:47:23;5.03;;;4.13;;
55647;SDS011;45266;48.756;9.246;2023-05-29T02:48:25;6.97;;;4.32;;
55647;SDS011;45266;48.756;9.246;2023-05-29T02:49:28;5.68;;;4.20;;
55647;SDS011;45266;48.756;9.246;2023-05-29T02:50:30;6.13;;;3.88;;
55647;SDS011;45266;48.756;9.246;2023-05-29T02:51:32;6.65;;;4.38;;
55647;SDS011;45266;48.756;9.246;2023-05-29T02:52:34;6.65;;;4.47;;
55647;SDS011;45266;48.756;9.246;2023-05-29T02:53:37;7.00;;;4.18;;
55647;SDS011;45266;48.756;9.246;2023-05-29T02:54:39;6.55;;;4.47;;
55647;SDS011;45266;48.756;9.246;2023-05-29T02:55:41;6.23;;;4.30;;
55647;SDS011;45266;48.756;9.246;2023-05-29T02:56:44;6.82;;;4.25;;
55647;SDS011;45266;48.756;9.246;2023-05-29T02:57:46;8.48;;;4.35;;
55647;SDS011;45266;48.756;9.246;2023-05-29T02:58:50;6.55;;;4.25;;
55647;SDS011;45266;48.756;9.246;2023-05-29T02:59:52;5.45;;;4.05;;
55647;SDS011;45266;48.756;9.246;2023-05-29T03:00:54;5.65;;;3.92;;
55647;SDS011;45266;48.756;9.246;2023-05-29T03:01:56;7.00;;;4.05;;
55647;SDS011;45266;48.756;9.246;2023-05-29T03:02:58;8.32;;;4.32;;
55647;SDS011;45266;48.756;9.246;2023-05-29T03:04:00;5.90;;;4.50;;
55647;SDS011;45266;48.756;9.246;2023-05-29T03:05:02;7.18;;;4.47;;
55647;SDS011;45266;48.756;9.246;2023-05-29T03:06:04;5.68;;;4.28;;
55647;SDS011;45266;48.756;9.246;2023-05-29T03:07:06;5.35;;;3.90;;
55647;SDS011;45266;48.756;9.246;2023-05-29T03:08:10;7.57;;;4.33;;
55647;SDS011;45266;48.756;9.246;2023-05-29T03:09:12;5.47;;;4.07;;
55647;SDS011;45266;48.756;9.246;2023-05-29T03:10:14;7.13;;;3.83;;
55647;SDS011;45266;48.756;9.246;2023-05-29T03:11:18;7.93;;;4.50;;
55647;SDS011;45266;48.756;9.246;2023-05-29T03:12:20;4.75;;;3.70;;
55647;SDS011;45266;48.756;9.246;2023-05-29T03:13:22;5.70;;;4.25;;
55647;SDS011;45266;48.756;9.246;2023-05-29T03:14:24;7.95;;;4.13;;
55647;SDS011;45266;48.756;9.246;2023-05-29T03:15:26;6.05;;;4.40;;
55647;SDS011;45266;48.756;9.246;2023-05-29T03:16:28;5.82;;;4.18;;
55647;SDS011;45266;48.756;9.246;2023-05-29T03:17:30;7.17;;;4.70;;
55647;SDS011;45266;48.756;9.246;2023-05-29T03:18:32;8.45;;;4.45;;
55647;SDS011;45266;48.756;9.246;2023-05-29T03:19:34;6.88;;;4.15;;
55647;SDS011;45266;48.756;9.246;2023-05-29T03:20:36;6.30;;;4.32;;
55647;SDS011;45266;48.756;9.246;2023-05-29T03:21:38;5.18;;;3.83;;
55647;SDS011;45266;48.756;9.246;2023-05-29T03:22:40;5.80;;;3.80;;
55647;SDS011;45266;48.756;9.246;2023-05-29T03:23:43;6.32;;;4.40;;
55647;SDS011;45266;48.756;9.246;2023-05-29T03:24:44;6.80;;;4.73;;
55647;SDS011;45266;48.756;9.246;2023-05-29T03:25:46;6.65;;;4.10;;
55647;SDS011;45266;48.756;9.246;2023-05-29T03:26:48;5.90;;;4.60;;
55647;SDS011;45266;48.756;9.246;2023-05-29T03:27:50;5.07;;;4.20;;
55647;SDS011;45266;48.756;9.246;2023-05-29T03:28:52;5.70;;;4.03;;
55647;SDS011;45266;48.756;9.246;2023-05-29T03:29:54;6.45;;;4.35;;
55647;SDS011;45266;48.756;9.246;2023-05-29T03:30:56;6.93;;;4.40;;
55647;SDS011;45266;48.756;9.246;2023-05-29T03:31:58;7.00;;;4.15;;
55647;SDS011;45266;48.756;9.246;2023-05-29T03:33:00;7.60;;;4.25;;
55647;SDS011;45266;48.756;9.246;2023-05-29T03:34:04;5.87;;;4.00;;
55647;SDS011;45266;48.756;9.246;2023-05-29T03:35:06;7.82;;;4.15;;
55647;SDS011;45266;48.756;9.246;2023-05-29T03:36:09;5.85;;;4.40;;
55647;SDS011;45266;48.756;9.246;2023-05-29T03:37:12;6.53;;;4.27;;
55647;SDS011;45266;48.756;9.246;2023-05-29T03:38:13;5.88;;;4.45;;
55647;SDS011;45266;48.756;9.246;2023-05-29T03:39:15;7.10;;;4.50;;
55647;SDS011;45266;48.756;9.246;2023-05-29T03:40:17;6.03;;;3.95;;
55647;SDS011;45266;48.756;9.246;2023-05-29T03:41:19;7.13;;;4.35;;
55647;SDS011;45266;48.756;9.246;2023-05-29T03:42:21;9.13;;;3.95;;
55647;SDS011;45266;48.756;9.246;2023-05-29T03:43:26;5.93;;;4.28;;
55647;SDS011;45266;48.756;9.246;2023-05-29T03:44:28;6.00;;;4.38;;
55647;SDS011;45266;48.756;9.246;2023-05-29T03:45:30;9.07;;;4.35;;
55647;SDS011;45266;48.756;9.246;2023-05-29T03:46:32;6.40;;;4.32;;
55647;SDS011;45266;48.756;9.246;2023-05-29T03:47:34;5.38;;;4.10;;
55647;SDS011;45266;48.756;9.246;2023-05-29T03:48:36;5.60;;;4.40;;
55647;SDS011;45266;48.756;9.246;2023-05-29T03:49:37;6.50;;;4.27;;
55647;SDS011;45266;48.756;9.246;2023-05-29T03:50:40;6.00;;;4.17;;
55647;SDS011;45266;48.756;9.246;2023-05-29T03:51:42;6.45;;;4.22;;
55647;SDS011;45266;48.756;9.246;2023-05-29T03:52:43;6.60;;;4.47;;
55647;SDS011;45266;48.756;9.246;2023-05-29T03:53:46;7.50;;;4.50;;
55647;SDS011;45266;48.756;9.246;2023-05-29T03:54:47;8.87;;;4.83;;
55647;SDS011;45266;48.756;9.246;2023-05-29T03:55:49;8.45;;;5.43;;
55647;SDS011;45266;48.756;9.246;2023-05-29T03:56:51;9.57;;;5.43;;
55647;SDS011;45266;48.756;9.246;2023-05-29T03:57:53;7.43;;;4.20;;
55647;SDS011;45266;48.756;9.246;2023-05-29T03:58:55;8.83;;;4.73;;
55647;SDS011;45266;48.756;9.246;2023-05-29T03:59:57;6.22;;;4.20;;
55647;SDS011;45266;48.756;9.246;2023-05-29T04:00:59;5.30;;;4.17;;
55647;SDS011;45266;48.756;9.246;2023-05-29T04:02:01;5.43;;;4.17;;
55647;SDS011;45266;48.756;9.246;2023-05-29T04:03:03;6.07;;;4.60;;
55647;SDS011;45266;48.756;9.246;2023-05-29T04:04:05;6.53;;;4.53;;
55647;SDS011;45266;48.756;9.246;2023-05-29T04:05:07;6.05;;;4.45;;
55647;SDS011;45266;48.756;9.246;2023-05-29T04:06:14;5.20;;;4.27;;
55647;SDS011;45266;48.756;9.246;2023-05-29T04:07:16;5.73;;;4.57;;
55647;SDS011;45266;48.756;9.246;2023-05-29T04:08:19;6.40;;;4.70;;
55647;SDS011;45266;48.756;9.246;2023-05-29T04:09:21;7.38;;;4.68;;
55647;SDS011;45266;48.756;9.246;2023-05-29T04:10:26;5.53;;;4.23;;
55647;SDS011;45266;48.756;9.246;2023-05-29T04:11:28;8.90;;;4.20;;
55647;SDS011;45266;48.756;9.246;2023-05-29T04:12:31;7.33;;;4.13;;
55647;SDS011;45266;48.756;9.246;2023-05-29T04:13:33;5.47;;;4.17;;
55647;SDS011;45266;48.756;9.246;2023-05-29T04:14:35;6.40;;;4.85;;
55647;SDS011;45266;48.756;9.246;2023-05-29T04:15:37;6.43;;;4.30;;
55647;SDS011;45266;48.756;9.246;2023-05-29T04:16:39;5.05;;;4.03;;
55647;SDS011;45266;48.756;9.246;2023-05-29T04:17:41;6.88;;;4.10;;
55647;SDS011;45266;48.756;9.246;2023-05-29T04:18:43;8.25;;;4.63;;
55647;SDS011;45266;48.756;9.246;2023-05-29T04:19:45;7.53;;;4.80;;
55647;SDS011;45266;48.756;9.246;2023-05-29T04:20:47;5.50;;;4.60;;
55647;SDS011;45266;48.756;9.246;2023-05-29T04:21:49;7.57;;;4.07;;
55647;SDS011;45266;48.756;9.246;2023-05-29T04:22:51;5.25;;;4.03;;
55647;SDS011;45266;48.756;9.246;2023-05-29T04:23:53;6.57;;;4.53;;
55647;SDS011;45266;48.756;9.246;2023-05-29T04:24:55;6.90;;;4.57;;
55647;SDS011;45266;48.756;9.246;2023-05-29T04:25:56;5.97;;;3.97;;
55647;SDS011;45266;48.756;9.246;2023-05-29T04:26:58;6.17;;;4.37;;
55647;SDS011;45266;48.756;9.246;2023-05-29T04:28:03;5.95;;;4.30;;
55647;SDS011;45266;48.756;9.246;2023-05-29T04:29:05;6.47;;;4.40;;
55647;SDS011;45266;48.756;9.246;2023-05-29T04:30:07;7.40;;;4.55;;
55647;SDS011;45266;48.756;9.246;2023-05-29T04:31:09;5.80;;;4.20;;
55647;SDS011;45266;48.756;9.246;2023-05-29T04:32:15;8.00;;;4.30;;
55647;SDS011;45266;48.756;9.246;2023-05-29T04:33:17;6.70;;;4.43;;
55647;SDS011;45266;48.756;9.246;2023-05-29T04:34:19;6.18;;;4.55;;
55647;SDS011;45266;48.756;9.246;2023-05-29T04:35:21;6.20;;;4.47;;
55647;SDS011;45266;48.756;9.246;2023-05-29T04:36:23;7.60;;;4.88;;
55647;SDS011;45266;48.756;9.246;2023-05-29T04:37:29;7.03;;;4.75;;
55647;SDS011;45266;48.756;9.246;2023-05-29T04:38:31;6.30;;;4.68;;
55647;SDS011;45266;48.756;9.246;2023-05-29T04:39:33;5.25;;;4.32;;
55647;SDS011;45266;48.756;9.246;2023-05-29T04:40:35;9.03;;;5.00;;
55647;SDS011;45266;48.756;9.246;2023-05-29T04:41:37;5.85;;;4.32;;
55647;SDS011;45266;48.756;9.246;2023-05-29T04:42:41;6.03;;;4.67;;
55647;SDS011;45266;48.756;9.246;2023-05-29T04:43:45;6.35;;;4.90;;
55647;SDS011;45266;48.756;9.246;2023-05-29T04:44:48;5.40;;;4.03;;
55647;SDS011;45266;48.756;9.246;2023-05-29T04:45:50;6.30;;;4.30;;
55647;SDS011;45266;48.756;9.246;2023-05-29T04:46:52;6.38;;;4.53;;
55647;SDS011;45266;48.756;9.246;2023-05-29T04:47:54;7.72;;;4.93;;
55647;SDS011;45266;48.756;9.246;2023-05-29T04:48:56;7.65;;;4.90;;
55647;SDS011;45266;48.756;9.246;2023-05-29T04:49:59;7.57;;;5.00;;
55647;SDS011;45266;48.756;9.246;2023-05-29T04:51:01;7.10;;;4.95;;
55647;SDS011;45266;48.756;9.246;2023-05-29T04:52:03;8.13;;;4.68;;
55647;SDS011;45266;48.756;9.246;2023-05-29T04:53:06;7.68;;;5.00;;
55647;SDS011;45266;48.756;9.246;2023-05-29T04:54:08;7.38;;;5.20;;
55647;SDS011;45266;48.756;9.246;2023-05-29T04:55:11;7.25;;;4.90;;
55647;SDS011;45266;48.756;9.246;2023-05-29T04:56:13;7.10;;;4.75;;
55647;SDS011;45266;48.756;9.246;2023-05-29T04:57:15;6.05;;;4.75;;
55647;SDS011;45266;48.756;9.246;2023-05-29T04:58:17;8.95;;;4.97;;
55647;SDS011;45266;48.756;9.246;2023-05-29T04:59:20;7.50;;;4.57;;
55647;SDS011;45266;48.756;9.246;2023-05-29T05:00:25;6.32;;;4.60;;
55647;SDS011;45266;48.756;9.246;2023-05-29T05:01:26;5.25;;;4.47;;
55647;SDS011;45266;48.756;9.246;2023-05-29T05:02:30;6.90;;;5.00;;
55647;SDS011;45266;48.756;9.246;2023-05-29T05:03:32;8.52;;;4.97;;
55647;SDS011;45266;48.756;9.246;2023-05-29T05:04:35;6.82;;;4.40;;
55647;SDS011;45266;48.756;9.246;2023-05-29T05:05:37;7.57;;;4.85;;
55647;SDS011;45266;48.756;9.246;2023-05-29T05:06:39;7.70;;;4.13;;
55647;SDS011;45266;48.756;9.246;2023-05-29T05:07:41;5.75;;;4.47;;
55647;SDS011;45266;48.756;9.246;2023-05-29T05:08:43;6.90;;;4.28;;
55647;SDS011;45266;48.756;9.246;2023-05-29T05:09:45;6.72;;;5.07;;
55647;SDS011;45266;48.756;9.246;2023-05-29T05:10:47;8.75;;;4.78;;
55647;SDS011;45266;48.756;9.246;2023-05-29T05:11:49;6.00;;;4.10;;
55647;SDS011;45266;48.756;9.246;2023-05-29T05:12:51;11.65;;;5.10;;
55647;SDS011;45266;48.756;9.246;2023-05-29T05:13:53;6.47;;;4.65;;
55647;SDS011;45266;48.756;9.246;2023-05-29T05:14:55;7.43;;;4.93;;
55647;SDS011;45266;48.756;9.246;2023-05-29T05:15:57;8.25;;;4.68;;
55647;SDS011;45266;48.756;9.246;2023-05-29T05:16:59;7.57;;;4.82;;
55647;SDS011;45266;48.756;9.246;2023-05-29T05:18:02;6.97;;;4.50;;
55647;SDS011;45266;48.756;9.246;2023-05-29T05:19:04;8.88;;;4.97;;
55647;SDS011;45266;48.756;9.246;2023-05-29T05:20:07;6.80;;;4.78;;
55647;SDS011;45266;48.756;9.246;2023-05-29T05:21:10;10.43;;;4.75;;
55647;SDS011;45266;48.756;9.246;2023-05-29T05:22:12;6.78;;;4.70;;
55647;SDS011;45266;48.756;9.246;2023-05-29T05:23:14;7.38;;;4.85;;
55647;SDS011;45266;48.756;9.246;2023-05-29T05:24:16;6.13;;;4.57;;
55647;SDS011;45266;48.756;9.246;2023-05-29T05:25:18;5.90;;;4.57;;
55647;SDS011;45266;48.756;9.246;2023-05-29T05:26:20;7.05;;;4.53;;
55647;SDS011;45266;48.756;9.246;2023-05-29T05:27:23;6.47;;;4.60;;
55647;SDS011;45266;48.756;9.246;2023-05-29T05:28:25;6.93;;;4.70;;
55647;SDS011;45266;48.756;9.246;2023-05-29T05:29:27;6.45;;;4.68;;
55647;SDS011;45266;48.756;9.246;2023-05-29T05:30:29;5.50;;;4.03;;
55647;SDS011;45266;48.756;9.246;2023-05-29T05:31:31;8.90;;;4.65;;
55647;SDS011;45266;48.756;9.246;2023-05-29T05:32:32;6.82;;;4.93;;
55647;SDS011;45266;48.756;9.246;2023-05-29T05:33:35;6.00;;;4.38;;
55647;SDS011;45266;48.756;9.246;2023-05-29T05:34:38;7.78;;;4.93;;
55647;SDS011;45266;48.756;9.246;2023-05-29T05:35:39;9.05;;;5.55;;
55647;SDS011;45266;48.756;9.246;2023-05-29T05:36:41;6.47;;;4.47;;
55647;SDS011;45266;48.756;9.246;2023-05-29T05:37:43;9.48;;;4.90;;
55647;SDS011;45266;48.756;9.246;2023-05-29T05:38:45;7.90;;;5.40;;
55647;SDS011;45266;48.756;9.246;2023-05-29T05:39:47;8.27;;;5.00;;
55647;SDS011;45266;48.756;9.246;2023-05-29T05:40:49;8.70;;;5.38;;
55647;SDS011;45266;48.756;9.246;2023-05-29T05:41:51;9.20;;;5.70;;
55647;SDS011;45266;48.756;9.246;2023-05-29T05:42:53;10.55;;;4.95;;
55647;SDS011;45266;48.756;9.246;2023-05-29T05:43:56;8.50;;;5.60;;
55647;SDS011;45266;48.756;9.246;2023-05-29T05:44:57;8.02;;;5.65;;
55647;SDS011;45266;48.756;9.246;2023-05-29T05:45:59;7.88;;;5.60;;
55647;SDS011;45266;48.756;9.246;2023-05-29T05:47:01;7.72;;;5.35;;
55647;SDS011;45266;48.756;9.246;2023-05-29T05:48:03;7.70;;;5.55;;
55647;SDS011;45266;48.756;9.246;2023-05-29T05:49:05;6.95;;;5.32;;
55647;SDS011;45266;48.756;9.246;2023-05-29T05:50:07;7.05;;;5.50;;
55647;SDS011;45266;48.756;9.246;2023-05-29T05:51:12;6.22;;;5.20;;
55647;SDS011;45266;48.756;9.246;2023-05-29T05:52:14;8.27;;;5.60;;
55647;SDS011;45266;48.756;9.246;2023-05-29T05:53:16;10.77;;;5.72;;
55647;SDS011;45266;48.756;9.246;2023-05-29T05:54:18;9.10;;;5.68;;
55647;SDS011;45266;48.756;9.246;2023-05-29T05:55:20;8.63;;;5.70;;
55647;SDS011;45266;48.756;9.246;2023-05-29T05:56:22;10.30;;;5.75;;
55647;SDS011;45266;48.756;9.246;2023-05-29T05:57:23;6.80;;;5.55;;
55647;SDS011;45266;48.756;9.246;2023-05-29T05:58:26;7.95;;;5.47;;
55647;SDS011;45266;48.756;9.246;2023-05-29T05:59:28;9.32;;;6.15;;
55647;SDS011;45266;48.756;9.246;2023-05-29T06:00:30;7.93;;;6.18;;
55647;SDS011;45266;48.756;9.246;2023-05-29T06:01:32;8.20;;;5.45;;
55647;SDS011;45266;48.756;9.246;2023-05-29T06:02:34;8.15;;;6.07;;
55647;SDS011;45266;48.756;9.246;2023-05-29T06:03:36;7.20;;;5.32;;
55647;SDS011;45266;48.756;9.246;2023-05-29T06:04:39;10.45;;;6.20;;
55647;SDS011;45266;48.756;9.246;2023-05-29T06:05:42;7.57;;;5.45;;
55647;SDS011;45266;48.756;9.246;2023-05-29T06:06:44;10.70;;;6.07;;
55647;SDS011;45266;48.756;9.246;2023-05-29T06:07:46;10.45;;;6.18;;
55647;SDS011;45266;48.756;9.246;2023-05-29T06:08:47;10.45;;;6.45;;
55647;SDS011;45266;48.756;9.246;2023-05-29T06:09:50;7.63;;;5.30;;
55647;SDS011;45266;48.756;9.246;2023-05-29T06:10:52;8.02;;;5.97;;
55647;SDS011;45266;48.756;9.246;2023-05-29T06:11:54;8.25;;;5.82;;
55647;SDS011;45266;48.756;9.246;2023-05-29T06:12:56;8.18;;;5.45;;
55647;SDS011;45266;48.756;9.246;2023-05-29T06:13:58;8.30;;;5.50;;
55647;SDS011;45266;48.756;9.246;2023-05-29T06:15:00;8.30;;;6.10;;
55647;SDS011;45266;48.756;9.246;2023-05-29T06:16:04;7.38;;;5.32;;
55647;SDS011;45266;48.756;9.246;2023-05-29T06:17:06;6.97;;;5.30;;
55647;SDS011;45266;48.756;9.246;2023-05-29T06:18:08;8.68;;;5.05;;
55647;SDS011;45266;48.756;9.246;2023-05-29T06:19:10;11.63;;;4.85;;
55647;SDS011;45266;48.756;9.246;2023-05-29T06:20:12;7.10;;;4.70;;
55647;SDS011;45266;48.756;9.246;2023-05-29T06:21:15;11.45;;;5.82;;
55647;SDS011;45266;48.756;9.246;2023-05-29T06:22:18;8.98;;;5.10;;
55647;SDS011;45266;48.756;9.246;2023-05-29T06:23:20;9.25;;;5.35;;
55647;SDS011;45266;48.756;9.246;2023-05-29T06:24:22;7.30;;;4.97;;
55647;SDS011;45266;48.756;9.246;2023-05-29T06:25:23;8.00;;;5.57;;